createdAt,value
2019-04-02T00:00:36.793Z,70.38
2019-04-02T00:01:36.754Z,70.59
2019-04-02T00:02:36.741Z,70.62
2019-04-02T00:03:37.908Z,70.72
2019-04-02T00:04:36.747Z,70.93
2019-04-02T00:05:36.737Z,70.72
2019-04-02T00:06:36.698Z,71.03
2019-04-02T00:07:36.685Z,71.44
2019-04-02T00:08:36.675Z,71.24
2019-04-02T00:09:36.666Z,70.90
2019-04-02T00:10:36.734Z,70.93
2019-04-02T00:11:36.643Z,71.24
2019-04-02T00:12:36.631Z,71.44
2019-04-02T00:13:36.623Z,71.24
2019-04-02T00:14:36.610Z,71.44
2019-04-02T00:15:36.622Z,71.24
2019-04-02T00:16:36.588Z,71.58
2019-04-02T00:17:36.575Z,71.55
2019-04-02T00:18:37.278Z,71.58
2019-04-02T00:19:36.556Z,71.78
2019-04-02T00:20:36.566Z,71.89
2019-04-02T00:21:36.532Z,71.89
2019-04-02T00:22:36.525Z,72.41
2019-04-02T00:23:36.512Z,72.30
2019-04-02T00:24:36.501Z,72.20
2019-04-02T00:25:36.508Z,72.37
2019-04-02T00:26:36.475Z,72.78
2019-04-02T00:27:36.493Z,72.78
2019-04-02T00:28:36.456Z,71.99
2019-04-02T00:29:36.442Z,71.65
2019-04-02T00:30:36.440Z,71.96
2019-04-02T00:31:36.444Z,72.30
2019-04-02T00:32:36.409Z,72.20
2019-04-02T00:33:38.112Z,72.09
2019-04-02T00:34:36.700Z,72.09
2019-04-02T00:35:36.378Z,72.20
2019-04-02T00:36:36.391Z,72.51
2019-04-02T00:37:37.228Z,72.71
2019-04-02T00:38:36.347Z,72.61
2019-04-02T00:39:36.333Z,72.68
2019-04-02T00:40:36.335Z,73.23
2019-04-02T00:41:36.337Z,72.71
2019-04-02T00:42:36.299Z,72.71
2019-04-02T00:43:36.319Z,72.41
2019-04-02T00:44:36.275Z,73.33
2019-04-02T00:45:36.268Z,72.81
2019-04-02T00:46:36.282Z,72.51
2019-04-02T00:47:36.242Z,72.71
2019-04-02T00:48:36.231Z,72.92
2019-04-02T00:49:36.224Z,72.51
2019-04-02T00:50:36.210Z,73.54
2019-04-02T00:51:36.221Z,72.51
2019-04-02T00:52:36.723Z,73.02
2019-04-02T00:53:36.181Z,72.71
2019-04-02T00:54:36.166Z,73.13
2019-04-02T00:55:36.159Z,72.61
2019-04-02T00:56:36.196Z,72.41
2019-04-02T00:57:36.134Z,72.92
2019-04-02T00:58:36.120Z,72.81
2019-04-02T00:59:36.111Z,72.92
2019-04-02T01:00:36.102Z,73.33
2019-04-02T01:01:36.139Z,73.54
2019-04-02T01:02:36.082Z,72.71
2019-04-02T01:03:36.069Z,72.81
2019-04-02T01:04:36.053Z,72.13
2019-04-02T01:05:36.925Z,72.23
2019-04-02T01:06:36.056Z,72.64
2019-04-02T01:07:36.021Z,72.44
2019-04-02T01:08:36.011Z,72.96
2019-04-02T01:09:36.022Z,73.26
2019-04-02T01:10:35.991Z,72.75
2019-04-02T01:11:36.000Z,72.44
2019-04-02T01:12:35.968Z,73.05
2019-04-02T01:13:35.955Z,72.85
2019-04-02T01:14:35.967Z,73.26
2019-04-02T01:15:35.935Z,73.26
2019-04-02T01:16:35.947Z,73.26
2019-04-02T01:17:35.911Z,72.75
2019-04-02T01:18:35.915Z,73.16
2019-04-02T01:19:35.889Z,73.05
2019-04-02T01:20:36.992Z,73.57
2019-04-02T01:21:35.876Z,73.30
2019-04-02T01:22:35.878Z,73.30
2019-04-02T01:23:35.845Z,73.19
2019-04-02T01:24:35.853Z,73.91
2019-04-02T01:25:35.823Z,73.91
2019-04-02T01:26:35.814Z,74.22
2019-04-02T01:27:35.821Z,73.81
2019-04-02T01:28:35.823Z,74.22
2019-04-02T01:29:35.777Z,73.40
2019-04-02T01:30:35.765Z,73.60
2019-04-02T01:31:35.757Z,73.85
2019-04-02T01:32:35.769Z,74.33
2019-04-02T01:33:35.766Z,73.91
2019-04-02T01:34:35.721Z,73.91
2019-04-02T01:35:37.100Z,74.02
2019-04-02T01:36:36.317Z,74.43
2019-04-02T01:37:35.716Z,73.91
2019-04-02T01:38:35.681Z,73.91
2019-04-02T01:39:35.673Z,74.12
2019-04-02T01:40:35.656Z,74.33
2019-04-02T01:41:35.653Z,73.81
2019-04-02T01:42:35.660Z,73.81
2019-04-02T01:43:35.643Z,74.36
2019-04-02T01:44:35.613Z,74.57
2019-04-02T01:45:35.604Z,74.74
2019-04-02T01:46:35.595Z,74.74
2019-04-02T01:47:35.602Z,74.33
2019-04-02T01:48:35.573Z,75.05
2019-04-02T01:49:35.576Z,74.63
2019-04-02T01:50:36.170Z,74.88
2019-04-02T01:51:35.535Z,74.95
2019-04-02T01:52:35.548Z,75.15
2019-04-02T01:53:35.510Z,74.84
2019-04-02T01:54:35.508Z,74.88
2019-04-02T01:55:35.500Z,75.46
2019-04-02T01:56:35.482Z,75.36
2019-04-02T01:57:35.495Z,75.15
2019-04-02T01:58:35.456Z,74.84
2019-04-02T01:59:35.447Z,74.84
2019-04-02T02:00:35.435Z,74.63
2019-04-02T02:01:35.426Z,74.50
2019-04-02T02:02:35.434Z,73.88
2019-04-02T02:03:35.415Z,73.78
2019-04-02T02:04:35.391Z,73.88
2019-04-02T02:05:35.382Z,73.68
2019-04-02T02:06:35.367Z,73.33
2019-04-02T02:07:35.380Z,73.64
2019-04-02T02:08:37.146Z,73.43
2019-04-02T02:09:35.635Z,72.68
2019-04-02T02:10:35.321Z,72.27
2019-04-02T02:11:35.321Z,72.88
2019-04-02T02:12:35.360Z,72.68
2019-04-02T02:13:35.291Z,71.86
2019-04-02T02:14:35.298Z,72.16
2019-04-02T02:15:35.269Z,72.27
2019-04-02T02:16:35.257Z,71.92
2019-04-02T02:17:35.270Z,71.72
2019-04-02T02:18:35.233Z,72.09
2019-04-02T02:19:35.229Z,71.72
2019-04-02T02:20:35.212Z,71.51
2019-04-02T02:21:35.239Z,71.41
2019-04-02T02:22:35.196Z,71.00
2019-04-02T02:23:35.202Z,71.31
2019-04-02T02:24:35.171Z,70.86
2019-04-02T02:25:35.156Z,70.90
2019-04-02T02:26:35.264Z,71.17
2019-04-02T02:27:35.165Z,70.86
2019-04-02T02:28:35.146Z,71.07
2019-04-02T02:29:35.124Z,71.37
2019-04-02T02:30:35.104Z,70.86
2019-04-02T02:31:36.215Z,70.86
2019-04-02T02:32:36.448Z,70.76
2019-04-02T02:33:37.340Z,71.07
2019-04-02T02:34:35.061Z,70.83
2019-04-02T02:35:35.069Z,70.76
2019-04-02T02:36:35.039Z,70.73
2019-04-02T02:37:35.030Z,70.32
2019-04-02T02:38:35.040Z,70.62
2019-04-02T02:39:35.022Z,70.73
2019-04-02T02:40:34.996Z,70.83
2019-04-02T02:41:34.981Z,70.52
2019-04-02T02:42:34.969Z,70.76
2019-04-02T02:43:34.982Z,70.73
2019-04-02T02:44:34.993Z,70.25
2019-04-02T02:45:34.952Z,70.76
2019-04-02T02:46:34.929Z,70.42
2019-04-02T02:47:34.916Z,71.17
2019-04-02T02:48:34.941Z,70.97
2019-04-02T02:49:34.893Z,71.41
2019-04-02T02:50:34.879Z,71.28
2019-04-02T02:51:34.879Z,71.62
2019-04-02T02:52:34.857Z,72.16
2019-04-02T02:53:34.874Z,72.16
2019-04-02T02:54:34.835Z,72.99
2019-04-02T02:55:34.826Z,72.78
2019-04-02T02:56:34.828Z,72.41
2019-04-02T02:57:34.805Z,72.92
2019-04-02T02:58:34.822Z,72.81
2019-04-02T02:59:34.825Z,73.43
2019-04-02T03:00:34.768Z,73.47
2019-04-02T03:01:37.994Z,73.98
2019-04-02T03:02:34.750Z,73.57
2019-04-02T03:03:34.763Z,73.68
2019-04-02T03:04:34.756Z,74.02
2019-04-02T03:05:34.716Z,74.63
2019-04-02T03:06:34.703Z,73.71
2019-04-02T03:07:34.694Z,74.22
2019-04-02T03:08:34.696Z,74.88
2019-04-02T03:09:34.710Z,75.15
2019-04-02T03:10:35.251Z,74.95
2019-04-02T03:11:35.344Z,75.60
2019-04-02T03:12:36.225Z,75.60
2019-04-02T03:13:37.054Z,75.60
2019-04-02T03:14:34.646Z,75.49
2019-04-02T03:15:34.606Z,75.49
2019-04-02T03:16:34.598Z,74.36
2019-04-02T03:17:34.627Z,75.43
2019-04-02T03:18:34.575Z,75.63
2019-04-02T03:19:34.588Z,75.43
2019-04-02T03:20:34.549Z,75.84
2019-04-02T03:21:34.570Z,75.32
2019-04-02T03:22:34.527Z,75.74
2019-04-02T03:23:34.514Z,75.98
2019-04-02T03:24:34.534Z,75.77
2019-04-02T03:25:34.500Z,75.77
2019-04-02T03:26:34.481Z,75.87
2019-04-02T03:27:34.471Z,75.84
2019-04-02T03:28:34.467Z,75.98
2019-04-02T03:29:34.475Z,75.36
2019-04-02T03:30:34.437Z,75.77
2019-04-02T03:31:35.866Z,75.87
2019-04-02T03:32:34.414Z,75.87
2019-04-02T03:33:34.425Z,75.77
2019-04-02T03:34:34.418Z,76.50
2019-04-02T03:35:34.818Z,76.18
2019-04-02T03:36:35.473Z,76.18
2019-04-02T03:37:34.935Z,76.29
2019-04-02T03:38:36.964Z,76.29
2019-04-02T03:39:34.354Z,76.39
2019-04-02T03:40:34.332Z,76.60
2019-04-02T03:41:34.321Z,77.42
2019-04-02T03:42:34.298Z,77.22
2019-04-02T03:43:34.296Z,77.32
2019-04-02T03:44:34.304Z,77.22
2019-04-02T03:45:34.267Z,77.18
2019-04-02T03:46:34.277Z,78.05
2019-04-02T03:47:34.244Z,77.42
2019-04-02T03:48:36.670Z,77.42
2019-04-02T03:49:34.244Z,76.87
2019-04-02T03:50:34.210Z,77.49
2019-04-02T03:51:34.197Z,76.56
2019-04-02T03:52:34.191Z,76.77
2019-04-02T03:53:34.211Z,76.42
2019-04-02T03:54:34.196Z,76.21
2019-04-02T03:55:34.151Z,76.21
2019-04-02T03:56:34.141Z,76.01
2019-04-02T03:57:34.128Z,76.29
2019-04-02T03:58:34.120Z,75.77
2019-04-02T03:59:34.134Z,75.36
2019-04-02T04:00:34.101Z,75.77
2019-04-02T04:01:34.097Z,76.08
2019-04-02T04:02:34.077Z,75.46
2019-04-02T04:03:34.066Z,76.18
2019-04-02T04:04:34.055Z,75.56
2019-04-02T04:05:34.397Z,75.26
2019-04-02T04:06:34.807Z,75.36
2019-04-02T04:07:36.819Z,75.56
2019-04-02T04:08:35.005Z,75.67
2019-04-02T04:09:33.995Z,76.18
2019-04-02T04:10:34.011Z,75.56
2019-04-02T04:11:33.991Z,75.77
2019-04-02T04:12:33.968Z,75.56
2019-04-02T04:13:33.949Z,75.94
2019-04-02T04:14:33.965Z,75.67
2019-04-02T04:15:33.952Z,75.87
2019-04-02T04:16:33.913Z,76.39
2019-04-02T04:17:33.901Z,76.18
2019-04-02T04:18:33.898Z,75.98
2019-04-02T04:19:33.908Z,75.56
2019-04-02T04:20:33.890Z,75.36
2019-04-02T04:21:33.856Z,75.98
2019-04-02T04:22:33.849Z,75.87
2019-04-02T04:23:33.839Z,75.46
2019-04-02T04:24:33.833Z,76.18
2019-04-02T04:25:33.847Z,75.26
2019-04-02T04:26:33.837Z,75.53
2019-04-02T04:27:34.322Z,75.43
2019-04-02T04:28:34.768Z,75.84
2019-04-02T04:29:34.311Z,75.32
2019-04-02T04:30:33.753Z,75.63
2019-04-02T04:31:33.782Z,75.53
2019-04-02T04:32:33.771Z,74.29
2019-04-02T04:33:33.722Z,75.43
2019-04-02T04:34:33.710Z,74.50
2019-04-02T04:35:33.702Z,75.08
2019-04-02T04:36:33.726Z,75.22
2019-04-02T04:37:33.681Z,74.67
2019-04-02T04:38:33.685Z,74.98
2019-04-02T04:39:33.660Z,74.57
2019-04-02T04:40:33.644Z,74.36
2019-04-02T04:41:33.671Z,75.08
2019-04-02T04:42:33.621Z,75.18
2019-04-02T04:43:33.613Z,74.57
2019-04-02T04:44:33.622Z,74.57
2019-04-02T04:45:33.588Z,74.05
2019-04-02T04:46:33.600Z,74.67
2019-04-02T04:47:33.564Z,74.77
2019-04-02T04:48:33.550Z,74.67
2019-04-02T04:49:33.572Z,75.18
2019-04-02T04:50:33.532Z,74.77
2019-04-02T04:51:33.543Z,74.98
2019-04-02T04:52:33.509Z,74.57
2019-04-02T04:53:33.499Z,74.77
2019-04-02T04:54:33.927Z,74.26
2019-04-02T04:55:33.480Z,74.46
2019-04-02T04:56:35.698Z,73.81
2019-04-02T04:57:33.978Z,74.53
2019-04-02T04:58:33.460Z,74.16
2019-04-02T04:59:33.436Z,75.05
2019-04-02T05:00:33.422Z,74.53
2019-04-02T05:01:33.428Z,74.77
2019-04-02T05:02:33.400Z,75.08
2019-04-02T05:03:33.385Z,75.49
2019-04-02T05:04:33.405Z,74.67
2019-04-02T05:05:33.361Z,74.95
2019-04-02T05:06:33.355Z,74.63
2019-04-02T05:07:33.364Z,74.74
2019-04-02T05:08:33.326Z,74.63
2019-04-02T05:09:33.319Z,74.12
2019-04-02T05:10:33.305Z,74.02
2019-04-02T05:11:33.321Z,73.71
2019-04-02T05:12:33.312Z,74.43
2019-04-02T05:13:33.273Z,73.71
2019-04-02T05:14:33.262Z,73.71
2019-04-02T05:15:33.255Z,73.81
2019-04-02T05:16:33.239Z,74.02
2019-04-02T05:17:33.249Z,74.63
2019-04-02T05:18:33.232Z,74.50
2019-04-02T05:19:33.204Z,73.68
2019-04-02T05:20:33.192Z,74.19
2019-04-02T05:21:33.202Z,73.81
2019-04-02T05:22:33.192Z,74.63
2019-04-02T05:23:33.168Z,74.70
2019-04-02T05:24:33.157Z,73.91
2019-04-02T05:25:33.139Z,73.68
2019-04-02T05:26:33.129Z,73.78
2019-04-02T05:27:33.135Z,73.98
2019-04-02T05:28:33.103Z,73.68
2019-04-02T05:29:33.092Z,74.40
2019-04-02T05:30:33.181Z,74.08
2019-04-02T05:31:33.090Z,73.68
2019-04-02T05:32:33.082Z,73.47
2019-04-02T05:33:33.050Z,72.81
2019-04-02T05:34:33.042Z,73.16
2019-04-02T05:35:33.023Z,73.13
2019-04-02T05:36:33.011Z,73.44
2019-04-02T05:37:33.058Z,73.23
2019-04-02T05:38:32.993Z,73.02
2019-04-02T05:39:32.979Z,73.02
2019-04-02T05:40:32.974Z,73.23
2019-04-02T05:41:32.986Z,72.68
2019-04-02T05:42:32.969Z,72.58
2019-04-02T05:43:32.934Z,72.47
2019-04-02T05:44:32.923Z,72.38
2019-04-02T05:45:32.921Z,72.06
2019-04-02T05:46:34.303Z,72.06
2019-04-02T05:47:33.433Z,72.68
2019-04-02T05:48:32.916Z,72.99
2019-04-02T05:49:32.874Z,72.47
2019-04-02T05:50:32.859Z,71.96
2019-04-02T05:51:32.852Z,72.06
2019-04-02T05:52:32.840Z,72.99
2019-04-02T05:53:32.850Z,72.55
2019-04-02T05:54:32.834Z,72.55
2019-04-02T05:55:32.803Z,72.24
2019-04-02T05:56:32.793Z,72.13
2019-04-02T05:57:32.782Z,72.34
2019-04-02T05:58:35.008Z,72.34
2019-04-02T05:59:32.756Z,72.44
2019-04-02T06:00:32.747Z,72.03
2019-04-02T06:01:32.737Z,72.03
2019-04-02T06:02:32.727Z,71.83
2019-04-02T06:03:32.738Z,71.93
2019-04-02T06:04:32.703Z,72.34
2019-04-02T06:05:32.703Z,71.93
2019-04-02T06:06:32.689Z,71.83
2019-04-02T06:07:32.671Z,71.62
2019-04-02T06:08:33.422Z,71.59
2019-04-02T06:09:32.646Z,71.38
2019-04-02T06:10:33.022Z,71.59
2019-04-02T06:11:32.820Z,71.38
2019-04-02T06:12:32.613Z,71.08
2019-04-02T06:13:32.627Z,71.17
2019-04-02T06:14:32.592Z,71.28
2019-04-02T06:15:32.587Z,71.28
2019-04-02T06:16:32.568Z,71.08
2019-04-02T06:17:32.559Z,71.28
2019-04-02T06:18:32.570Z,70.76
2019-04-02T06:19:32.568Z,71.14
2019-04-02T06:20:32.523Z,71.35
2019-04-02T06:21:32.522Z,70.73
2019-04-02T06:22:32.502Z,71.14
2019-04-02T06:23:32.517Z,70.94
2019-04-02T06:24:32.479Z,71.35
2019-04-02T06:25:32.467Z,70.84
2019-04-02T06:26:32.464Z,70.73
2019-04-02T06:27:32.490Z,70.73
2019-04-02T06:28:32.462Z,70.94
2019-04-02T06:29:32.428Z,70.63
2019-04-02T06:30:32.441Z,70.84
2019-04-02T06:31:32.404Z,70.53
2019-04-02T06:32:32.392Z,70.84
2019-04-02T06:33:32.405Z,70.70
2019-04-02T06:34:32.368Z,70.80
2019-04-02T06:35:32.365Z,70.70
2019-04-02T06:36:32.349Z,70.18
2019-04-02T06:37:32.336Z,70.50
2019-04-02T06:38:32.358Z,70.08
2019-04-02T06:39:32.319Z,70.29
2019-04-02T06:40:32.300Z,69.67
2019-04-02T06:41:32.295Z,70.08
2019-04-02T06:42:32.278Z,70.26
2019-04-02T06:43:32.294Z,69.95
2019-04-02T06:44:32.283Z,69.54
2019-04-02T06:45:32.248Z,69.64
2019-04-02T06:46:32.233Z,69.33
2019-04-02T06:47:32.224Z,69.30
2019-04-02T06:48:32.219Z,69.13
2019-04-02T06:49:32.230Z,68.99
2019-04-02T06:50:32.195Z,68.89
2019-04-02T06:51:32.177Z,68.89
2019-04-02T06:52:32.166Z,68.68
2019-04-02T06:53:32.154Z,68.89
2019-04-02T06:54:32.175Z,68.48
2019-04-02T06:55:32.133Z,68.17
2019-04-02T06:56:32.131Z,68.17
2019-04-02T06:57:32.112Z,67.66
2019-04-02T06:58:32.099Z,67.73
2019-04-02T06:59:32.111Z,67.35
2019-04-02T07:00:32.468Z,67.73
2019-04-02T07:01:32.938Z,67.52
2019-04-02T07:02:32.054Z,67.52
2019-04-02T07:03:32.046Z,67.60
2019-04-02T07:04:37.889Z,67.60
2019-04-02T07:05:33.063Z,67.52
2019-04-02T07:06:32.011Z,66.71
2019-04-02T07:07:32.049Z,66.27
2019-04-02T07:08:31.989Z,66.16
2019-04-02T07:09:44.117Z,66.16
2019-04-02T07:10:43.110Z,66.78
2019-04-02T07:11:42.729Z,66.27
2019-04-02T07:12:42.844Z,66.27
2019-04-02T07:13:32.968Z,67.08
2019-04-02T07:14:31.993Z,66.37
2019-04-02T07:15:31.911Z,66.57
2019-04-02T07:16:31.900Z,66.67
2019-04-02T07:17:31.937Z,65.24
2019-04-02T07:18:31.875Z,65.75
2019-04-02T07:19:31.888Z,66.44
2019-04-02T07:20:31.860Z,65.93
2019-04-02T07:21:31.861Z,65.93
2019-04-02T07:22:31.837Z,66.13
2019-04-02T07:23:31.821Z,65.52
2019-04-02T07:24:31.856Z,65.21
2019-04-02T07:25:31.898Z,65.28
2019-04-02T07:26:31.850Z,65.83
2019-04-02T07:27:31.783Z,65.21
2019-04-02T07:28:31.766Z,64.77
2019-04-02T07:29:31.785Z,65.18
2019-04-02T07:30:31.744Z,65.18
2019-04-02T07:33:42.981Z,65.28
2019-04-02T07:34:43.067Z,65.25
2019-04-02T07:35:42.944Z,65.05
2019-04-02T07:36:42.919Z,65.36
2019-04-02T07:37:42.907Z,65.15
2019-04-02T07:38:42.897Z,65.15
2019-04-02T07:39:42.909Z,65.25
2019-04-02T07:40:42.873Z,64.43
2019-04-02T07:41:45.272Z,64.13
2019-04-02T07:42:42.851Z,64.43
2019-04-02T07:43:42.842Z,64.23
2019-04-02T07:44:42.853Z,63.92
2019-04-02T07:45:42.821Z,64.10
2019-04-02T07:46:42.806Z,64.13
2019-04-02T07:47:44.630Z,64.30
2019-04-02T07:48:42.784Z,64.20
2019-04-02T07:49:42.802Z,63.62
2019-04-02T07:50:42.764Z,63.69
2019-04-02T07:51:42.752Z,63.79
2019-04-02T07:52:42.742Z,64.40
2019-04-02T07:53:42.728Z,64.10
2019-04-02T07:54:42.717Z,63.79
2019-04-02T07:55:42.729Z,63.79
2019-04-02T07:56:42.693Z,63.59
2019-04-02T07:57:42.683Z,63.69
2019-04-02T07:58:42.674Z,63.48
2019-04-02T07:59:42.675Z,63.48
2019-04-02T08:00:42.673Z,63.69
2019-04-02T08:01:42.637Z,63.69
2019-04-02T08:02:42.625Z,63.66
2019-04-02T08:03:42.615Z,63.35
2019-04-02T08:04:42.607Z,63.25
2019-04-02T08:05:42.617Z,63.66
2019-04-02T08:06:42.584Z,63.15
2019-04-02T08:07:42.571Z,63.35
2019-04-02T08:08:42.558Z,62.95
2019-04-02T08:09:42.552Z,62.95
2019-04-02T08:10:43.498Z,63.02
2019-04-02T08:11:42.538Z,62.71
2019-04-02T08:12:42.513Z,62.71
2019-04-02T08:13:42.505Z,61.90
2019-04-02T08:14:42.490Z,62.20
2019-04-02T08:15:42.503Z,61.90
2019-04-02T08:16:42.476Z,61.58
2019-04-02T08:17:42.974Z,61.58
2019-04-02T08:18:43.679Z,61.90
2019-04-02T08:19:42.437Z,61.05
2019-04-02T08:20:42.445Z,61.56
2019-04-02T08:21:42.410Z,60.87
2019-04-02T08:22:42.405Z,61.49
2019-04-02T08:23:42.388Z,61.46
2019-04-02T08:24:42.380Z,61.66
2019-04-02T08:25:42.391Z,60.64
2019-04-02T08:26:42.357Z,60.94
2019-04-02T08:27:42.345Z,61.97
2019-04-02T08:28:44.513Z,61.35
2019-04-02T08:29:42.325Z,61.56
2019-04-02T08:30:42.335Z,61.15
2019-04-02T08:31:42.299Z,61.87
2019-04-02T08:32:42.293Z,60.21
2019-04-02T08:33:42.275Z,61.05
2019-04-02T08:34:42.264Z,61.35
2019-04-02T08:35:42.279Z,61.35
2019-04-02T08:36:42.247Z,61.53
2019-04-02T08:37:42.232Z,61.56
2019-04-02T08:38:42.219Z,61.35
2019-04-02T08:39:42.207Z,60.71
2019-04-02T08:40:42.219Z,60.41
2019-04-02T08:41:42.186Z,60.61
2019-04-02T08:42:42.176Z,60.51
2019-04-02T08:43:42.163Z,60.51
2019-04-02T08:44:42.152Z,60.41
2019-04-02T08:45:42.164Z,61.22
2019-04-02T08:46:42.129Z,61.32
2019-04-02T08:47:42.116Z,60.92
2019-04-02T08:48:42.109Z,60.78
2019-04-02T08:49:42.096Z,61.60
2019-04-02T08:50:42.106Z,60.58
2019-04-02T08:51:42.075Z,61.40
2019-04-02T08:52:42.065Z,60.69
2019-04-02T08:53:42.051Z,59.77
2019-04-02T08:54:42.038Z,60.86
2019-04-02T08:55:42.055Z,61.57
2019-04-02T08:56:42.015Z,61.37
2019-04-02T08:57:53.355Z,61.88
2019-04-02T08:58:51.505Z,61.07
2019-04-02T08:59:55.192Z,60.76
2019-04-02T09:00:42.995Z,60.45
2019-04-02T09:01:41.958Z,61.57
2019-04-02T09:02:43.285Z,61.47
2019-04-02T09:03:41.936Z,61.57
2019-04-02T09:04:41.925Z,61.16
2019-04-02T09:05:41.938Z,61.50
2019-04-02T09:06:43.566Z,61.40
2019-04-02T09:07:41.892Z,61.30
2019-04-02T09:08:41.895Z,61.09
2019-04-02T09:09:41.928Z,60.38
2019-04-02T09:10:41.919Z,61.30
2019-04-02T09:11:41.846Z,61.80
2019-04-02T09:12:41.834Z,60.48
2019-04-02T09:13:42.736Z,60.69
2019-04-02T09:14:41.810Z,61.09
2019-04-02T09:15:41.822Z,61.30
2019-04-02T09:16:41.795Z,60.78
2019-04-02T09:17:41.830Z,60.28
2019-04-02T09:18:41.770Z,61.30
2019-04-02T09:19:41.757Z,62.42
2019-04-02T09:20:41.783Z,59.97
2019-04-02T09:21:41.734Z,60.89
2019-04-02T09:22:41.724Z,59.97
2019-04-02T09:23:41.711Z,60.07
2019-04-02T09:24:41.699Z,60.69
2019-04-02T09:25:41.711Z,60.99
2019-04-02T09:26:41.675Z,61.40
2019-04-02T09:27:41.663Z,60.17
2019-04-02T09:28:43.961Z,59.46
2019-04-02T09:29:43.492Z,59.97
2019-04-02T09:30:41.659Z,59.87
2019-04-02T09:31:41.809Z,60.07
2019-04-02T09:32:41.608Z,60.07
2019-04-02T09:33:41.596Z,59.53
2019-04-02T09:34:41.585Z,59.84
2019-04-02T09:35:42.230Z,59.74
2019-04-02T09:36:41.566Z,59.43
2019-04-02T09:37:41.550Z,59.64
2019-04-02T09:38:43.049Z,59.00
2019-04-02T09:39:41.528Z,58.41
2019-04-02T09:40:41.542Z,58.89
2019-04-02T09:41:41.504Z,59.23
2019-04-02T09:42:41.495Z,58.89
2019-04-02T09:43:42.477Z,59.30
2019-04-02T09:44:41.471Z,58.49
2019-04-02T09:45:41.485Z,58.67
2019-04-02T09:46:41.449Z,58.26
2019-04-02T09:47:41.445Z,58.76
2019-04-02T09:48:41.427Z,58.56
2019-04-02T09:49:41.417Z,58.56
2019-04-02T09:50:41.433Z,57.75
2019-04-02T09:51:41.401Z,57.52
2019-04-02T09:52:41.387Z,58.44
2019-04-02T09:53:41.375Z,57.72
2019-04-02T09:54:41.363Z,58.03
2019-04-02T09:55:48.762Z,57.92
2019-04-02T09:56:42.502Z,57.42
2019-04-02T09:57:41.324Z,57.62
2019-04-02T09:58:42.250Z,57.18
2019-04-02T09:59:41.305Z,57.69
2019-04-02T10:00:41.323Z,58.10
2019-04-02T10:01:41.286Z,61.97
2019-04-02T10:02:41.268Z,60.34
2019-04-02T10:03:41.272Z,57.79
2019-04-02T10:04:41.491Z,59.09
2019-04-02T10:05:44.034Z,60.11
2019-04-02T10:06:41.226Z,58.89
2019-04-02T10:07:41.211Z,60.11
2019-04-02T10:08:41.204Z,58.48
2019-04-02T10:09:41.194Z,59.37
2019-04-02T10:10:41.262Z,57.67
2019-04-02T10:11:41.172Z,58.76
2019-04-02T10:12:41.160Z,58.65
2019-04-02T10:13:41.142Z,57.54
2019-04-02T10:14:41.352Z,58.25
2019-04-02T10:15:41.144Z,58.15
2019-04-02T10:16:42.949Z,58.76
2019-04-02T10:17:43.450Z,58.56
2019-04-02T10:18:41.121Z,59.03
2019-04-02T10:19:41.076Z,58.56
2019-04-02T10:20:41.091Z,56.80
2019-04-02T10:21:41.054Z,57.51
2019-04-02T10:22:41.043Z,56.39
2019-04-02T10:23:41.059Z,58.12
2019-04-02T10:24:41.020Z,58.33
2019-04-02T10:25:41.042Z,58.12
2019-04-02T10:26:40.997Z,57.81
2019-04-02T10:27:40.993Z,55.78
2019-04-02T10:28:40.973Z,57.18
2019-04-02T10:29:40.963Z,57.31
2019-04-02T10:30:40.956Z,57.68
2019-04-02T10:31:40.972Z,57.18
2019-04-02T10:32:40.928Z,56.67
2019-04-02T10:33:40.920Z,55.96
2019-04-02T10:34:40.905Z,56.26
2019-04-02T10:35:40.923Z,57.48
2019-04-02T10:36:40.883Z,57.48
2019-04-02T10:37:40.874Z,57.89
2019-04-02T10:38:40.860Z,57.46
2019-04-02T10:39:41.072Z,56.77
2019-04-02T10:40:40.842Z,56.44
2019-04-02T10:41:40.856Z,56.65
2019-04-02T10:42:40.816Z,57.35
2019-04-02T10:43:40.815Z,56.04
2019-04-02T10:44:40.804Z,56.44
2019-04-02T10:45:40.795Z,56.92
2019-04-02T10:46:40.797Z,56.72
2019-04-02T10:47:40.766Z,54.99
2019-04-02T10:48:40.753Z,55.27
2019-04-02T10:49:40.745Z,54.36
2019-04-02T10:50:40.877Z,54.66
2019-04-02T10:51:40.739Z,54.16
2019-04-02T10:52:40.737Z,56.18
2019-04-02T10:53:40.727Z,55.37
2019-04-02T10:54:40.691Z,56.39
2019-04-02T10:55:40.674Z,56.18
2019-04-02T10:56:40.693Z,55.98
2019-04-02T10:57:40.652Z,55.55
2019-04-02T10:58:42.103Z,55.76
2019-04-02T10:59:40.625Z,55.15
2019-04-02T11:00:40.617Z,55.65
2019-04-02T11:01:40.626Z,56.03
2019-04-02T11:02:40.591Z,54.03
2019-04-02T11:03:40.585Z,53.91
2019-04-02T11:04:40.585Z,53.80
2019-04-02T11:05:40.593Z,53.70
2019-04-02T11:06:40.570Z,54.82
2019-04-02T11:07:40.536Z,54.00
2019-04-02T11:08:40.525Z,53.91
2019-04-02T11:09:40.518Z,54.00
2019-04-02T11:10:40.504Z,55.22
2019-04-02T11:11:40.509Z,55.43
2019-04-02T11:12:40.476Z,55.50
2019-04-02T11:13:40.467Z,55.22
2019-04-02T11:14:40.494Z,55.73
2019-04-02T11:15:40.499Z,55.40
2019-04-02T11:16:40.455Z,55.43
2019-04-02T11:17:40.435Z,55.22
2019-04-02T11:18:40.407Z,55.22
2019-04-02T11:19:40.403Z,55.52
2019-04-02T11:20:42.302Z,54.92
2019-04-02T11:21:40.397Z,55.12
2019-04-02T11:22:40.364Z,56.23
2019-04-02T11:23:40.356Z,55.52
2019-04-02T11:24:40.341Z,56.23
2019-04-02T11:25:40.331Z,56.34
2019-04-02T11:26:40.349Z,56.03
2019-04-02T11:27:40.303Z,55.73
2019-04-02T11:28:40.293Z,56.44
2019-04-02T11:29:40.302Z,55.83
2019-04-02T11:30:40.273Z,56.34
2019-04-02T11:31:40.283Z,56.13
2019-04-02T11:32:40.247Z,55.50
2019-04-02T11:33:40.240Z,55.73
2019-04-02T11:34:40.231Z,55.60
2019-04-02T11:35:40.220Z,56.54
2019-04-02T11:36:40.240Z,55.93
2019-04-02T11:37:40.190Z,55.93
2019-04-02T11:38:40.178Z,55.52
2019-04-02T11:39:40.168Z,56.21
2019-04-02T11:40:41.928Z,56.21
2019-04-02T11:41:40.169Z,56.21
2019-04-02T11:42:40.151Z,55.60
2019-04-02T11:43:40.122Z,55.60
2019-04-02T11:44:40.113Z,56.38
2019-04-02T11:45:40.099Z,55.68
2019-04-02T11:46:40.116Z,55.27
2019-04-02T11:47:40.077Z,56.08
2019-04-02T11:48:40.122Z,55.47
2019-04-02T11:49:40.055Z,54.36
2019-04-02T11:50:40.050Z,55.17
2019-04-02T11:51:40.056Z,55.77
2019-04-02T11:52:40.021Z,55.07
2019-04-02T11:53:41.193Z,54.86
2019-04-02T11:54:40.005Z,55.27
2019-04-02T11:55:39.988Z,55.30
2019-04-02T11:56:40.004Z,55.40
2019-04-02T11:57:41.346Z,56.01
2019-04-02T11:58:39.956Z,55.10
2019-04-02T11:59:39.942Z,55.60
2019-04-02T12:00:39.930Z,55.19
2019-04-02T12:01:39.950Z,55.30
2019-04-02T12:02:39.910Z,55.30
2019-04-02T12:03:39.897Z,56.21
2019-04-02T12:04:39.886Z,55.80
2019-04-02T12:05:39.873Z,55.60
2019-04-02T12:06:39.867Z,55.47
2019-04-02T12:07:41.666Z,56.18
2019-04-02T12:08:39.842Z,55.37
2019-04-02T12:09:45.319Z,55.47
2019-04-02T12:10:40.816Z,55.88
2019-04-02T12:11:39.807Z,55.37
2019-04-02T12:12:39.818Z,55.07
2019-04-02T12:13:39.824Z,53.63
2019-04-02T12:14:39.773Z,54.74
2019-04-02T12:15:49.115Z,54.41
2019-04-02T12:16:40.752Z,54.00
2019-04-02T12:17:39.761Z,54.41
2019-04-02T12:18:39.726Z,53.67
2019-04-02T12:19:39.723Z,53.60
2019-04-02T12:20:39.705Z,53.80
2019-04-02T12:21:41.446Z,53.60
2019-04-02T12:22:41.108Z,54.38
2019-04-02T12:23:40.486Z,54.61
2019-04-02T12:24:40.427Z,53.98
2019-04-02T12:25:40.173Z,53.38
2019-04-02T12:26:39.638Z,53.98
2019-04-02T12:27:39.650Z,53.17
2019-04-02T12:28:39.616Z,53.67
2019-04-02T12:29:39.603Z,53.58
2019-04-02T12:30:39.842Z,53.67
2019-04-02T12:31:39.580Z,52.56
2019-04-02T12:32:40.136Z,53.58
2019-04-02T12:33:39.569Z,52.87
2019-04-02T12:34:39.547Z,53.78
2019-04-02T12:35:39.543Z,52.87
2019-04-02T12:36:41.591Z,52.44
2019-04-02T12:37:40.361Z,53.27
2019-04-02T12:38:41.426Z,53.55
2019-04-02T12:39:41.470Z,53.78
2019-04-02T12:40:40.401Z,53.67
2019-04-02T12:41:40.875Z,52.76
2019-04-02T12:42:43.875Z,53.47
2019-04-02T12:43:40.469Z,53.67
2019-04-02T12:44:39.438Z,53.27
2019-04-02T12:45:39.432Z,53.78
2019-04-02T12:46:39.411Z,53.67
2019-04-02T12:47:39.401Z,54.28
2019-04-02T12:48:39.411Z,53.88
2019-04-02T12:49:39.377Z,53.67
2019-04-02T12:50:39.507Z,53.98
2019-04-02T12:51:40.205Z,53.88
2019-04-02T12:52:41.523Z,53.78
2019-04-02T12:53:39.356Z,54.49
2019-04-02T12:54:39.320Z,54.08